Time;durP1;ratioP1;P1;durP2;ratioP2;P2;SDS_P1;SDS_P2;PMS_P1;PMS_P2;Temp;Humidity;BMP_temperature;BMP_pressure;BME280_temperature;BME280_humidity;BME280_pressure;Samples;Min_cycle;Max_cycle;Signal;HPM_P1;HPM_P2
2020/12/17 00:01:45;;;;;;;13.53;11.47;;;;;;;;;;5038458;28;20032;-80
2020/12/17 00:04:11;;;;;;;14.80;10.80;;;;;;;;;;5055562;28;20017;-80
2020/12/17 00:06:37;;;;;;;15.10;11.70;;;;;;;;;;5036109;28;20013;-80
2020/12/17 00:09:04;;;;;;;16.33;12.07;;;;;;;;;;5038320;28;20026;-80
2020/12/17 00:11:30;;;;;;;18.20;13.20;;;;;;;;;;5029102;28;20026;-80
2020/12/17 00:13:56;;;;;;;16.70;12.30;;;;;;;;;;5019615;28;20386;-80
2020/12/17 00:16:22;;;;;;;18.17;13.20;;;;;;;;;;5021374;28;20029;-81
2020/12/17 00:18:48;;;;;;;17.70;13.63;;;;;;;;;;5022634;28;20069;-80
2020/12/17 00:21:20;;;;;;;18.63;12.83;;;;;;;;;;5022400;28;20422;-80
2020/12/17 00:23:46;;;;;;;19.83;13.67;;;;;;;;;;5020803;28;20094;-80
2020/12/17 00:26:12;;;;;;;17.20;14.23;;;;;;;;;;5017809;28;20025;-80
2020/12/17 00:28:38;;;;;;;21.57;14.50;;;;;;;;;;5017831;28;20048;-80
2020/12/17 00:31:04;;;;;;;20.17;14.23;;;;;;;;;;5018591;28;20094;-79
2020/12/17 00:33:30;;;;;;;18.07;13.57;;;;;;;;;;5018093;28;20040;-80
2020/12/17 00:35:56;;;;;;;20.17;13.33;;;;;;;;;;5018165;28;20117;-81
2020/12/17 00:38:22;;;;;;;21.30;14.70;;;;;;;;;;5035954;28;20041;-80
2020/12/17 00:40:49;;;;;;;20.07;15.33;;;;;;;;;;5019009;28;20112;-80
2020/12/17 00:43:15;;;;;;;15.93;11.17;;;;;;;;;;5037655;28;20037;-80
2020/12/17 00:45:41;;;;;;;19.13;13.80;;;;;;;;;;5020912;28;20037;-80
2020/12/17 00:48:07;;;;;;;19.60;14.37;;;;;;;;;;5020232;28;20029;-80
2020/12/17 00:50:33;;;;;;;19.50;14.47;;;;;;;;;;5041456;28;20371;-80
2020/12/17 00:52:59;;;;;;;17.13;12.70;;;;;;;;;;5025188;28;20064;-80
2020/12/17 00:55:25;;;;;;;15.97;13.53;;;;;;;;;;5029590;28;20034;-81
2020/12/17 00:57:51;;;;;;;16.53;13.77;;;;;;;;;;5046342;28;20053;-80
2020/12/17 01:00:17;;;;;;;20.03;14.23;;;;;;;;;;5024022;28;20058;-80
2020/12/17 01:02:43;;;;;;;17.13;14.73;;;;;;;;;;5027214;28;20030;-80
2020/12/17 01:05:09;;;;;;;17.00;12.33;;;;;;;;;;5030790;28;20022;-81
2020/12/17 01:07:35;;;;;;;18.93;13.53;;;;;;;;;;5029595;28;20030;-81
2020/12/17 01:10:01;;;;;;;15.93;11.90;;;;;;;;;;5031242;28;20054;-80
2020/12/17 01:12:27;;;;;;;18.47;12.27;;;;;;;;;;5021387;28;20060;-80
2020/12/17 01:14:53;;;;;;;14.93;12.27;;;;;;;;;;5027764;28;20033;-80
2020/12/17 01:17:19;;;;;;;16.37;12.03;;;;;;;;;;5027980;28;20057;-80
2020/12/17 01:19:45;;;;;;;19.33;13.60;;;;;;;;;;5026065;28;20033;-81
2020/12/17 01:22:11;;;;;;;19.07;13.93;;;;;;;;;;5000928;28;20486;-80
2020/12/17 01:24:37;;;;;;;18.70;12.83;;;;;;;;;;5016802;28;20061;-80
2020/12/17 01:27:03;;;;;;;32.13;15.17;;;;;;;;;;5016480;28;20037;-80
2020/12/17 01:29:29;;;;;;;18.70;13.40;;;;;;;;;;5016930;28;20041;-80
2020/12/17 01:31:59;;;;;;;21.10;15.10;;;;;;;;;;5017980;28;20030;-80
2020/12/17 01:34:25;;;;;;;22.13;15.37;;;;;;;;;;5018537;28;20056;-80
2020/12/17 01:36:52;;;;;;;21.23;15.87;;;;;;;;;;5021085;28;20033;-80
2020/12/17 01:39:18;;;;;;;17.43;13.27;;;;;;;;;;5032819;28;20029;-81
2020/12/17 01:41:44;;;;;;;21.63;14.83;;;;;;;;;;5022599;28;20032;-80
2020/12/17 01:44:10;;;;;;;20.93;15.50;;;;;;;;;;5022613;28;20026;-80
2020/12/17 01:46:36;;;;;;;22.57;13.83;;;;;;;;;;5028092;28;20022;-81
2020/12/17 01:49:03;;;;;;;22.67;15.23;;;;;;;;;;5024986;28;20018;-80
2020/12/17 01:51:29;;;;;;;18.37;12.07;;;;;;;;;;5028780;28;20052;-81
2020/12/17 01:53:55;;;;;;;22.20;14.63;;;;;;;;;;5021350;28;20390;-80
2020/12/17 01:56:23;;;;;;;21.27;14.67;;;;;;;;;;5020990;28;20388;-80
2020/12/17 01:58:53;;;;;;;18.83;14.70;;;;;;;;;;5024564;28;20091;-80
2020/12/17 02:01:19;;;;;;;20.60;15.00;;;;;;;;;;5046751;28;20075;-80
2020/12/17 02:03:46;;;;;;;20.90;15.10;;;;;;;;;;5027041;28;20458;-80
2020/12/17 02:06:12;;;;;;;22.33;15.47;;;;;;;;;;5032261;28;20033;-79
2020/12/17 02:08:39;;;;;;;27.80;14.83;;;;;;;;;;5031192;28;20040;-80
2020/12/17 02:11:09;;;;;;;29.60;17.53;;;;;;;;;;5032926;28;20032;-80
2020/12/17 02:13:35;;;;;;;26.37;16.33;;;;;;;;;;5032670;28;20025;-80
2020/12/17 02:16:03;;;;;;;20.47;14.70;;;;;;;;;;5039819;28;20044;-81
2020/12/17 02:18:29;;;;;;;25.73;16.10;;;;;;;;;;5039114;28;20045;-80
2020/12/17 02:20:55;;;;;;;23.63;15.90;;;;;;;;;;5056714;28;20025;-80
2020/12/17 02:23:22;;;;;;;22.10;15.70;;;;;;;;;;5038186;28;20009;-80
2020/12/17 02:25:48;;;;;;;28.33;14.80;;;;;;;;;;5021942;28;20036;-80
2020/12/17 02:28:15;;;;;;;24.80;14.87;;;;;;;;;;5043146;28;20033;-80
2020/12/17 02:30:41;;;;;;;22.50;16.97;;;;;;;;;;5031753;28;20017;-80
2020/12/17 02:33:07;;;;;;;20.77;15.13;;;;;;;;;;5031787;28;20021;-80
2020/12/17 02:35:33;;;;;;;27.90;16.40;;;;;;;;;;5023469;28;20359;-80
2020/12/17 02:37:59;;;;;;;23.20;15.83;;;;;;;;;;5025282;28;20034;-80
2020/12/17 02:40:25;;;;;;;21.83;16.20;;;;;;;;;;5026110;28;20588;-80
2020/12/17 02:42:52;;;;;;;25.43;17.23;;;;;;;;;;5046761;28;20029;-80
2020/12/17 02:45:18;;;;;;;22.37;15.70;;;;;;;;;;5034428;28;20021;-81
2020/12/17 02:47:44;;;;;;;24.40;16.13;;;;;;;;;;5028218;28;20061;-80
2020/12/17 02:50:10;;;;;;;24.03;15.57;;;;;;;;;;5055454;28;20032;-80
2020/12/17 02:52:36;;;;;;;23.47;16.27;;;;;;;;;;5025483;28;20359;-80
2020/12/17 02:55:02;;;;;;;23.70;17.07;;;;;;;;;;5027118;28;20386;-80
2020/12/17 02:57:28;;;;;;;26.13;18.00;;;;;;;;;;5035387;28;20043;-80
2020/12/17 02:59:54;;;;;;;23.40;17.63;;;;;;;;;;5026147;28;20116;-80
2020/12/17 03:02:20;;;;;;;27.07;21.03;;;;;;;;;;5030212;28;20021;-80
2020/12/17 03:04:46;;;;;;;29.07;19.70;;;;;;;;;;5024087;28;20051;-80
2020/12/17 03:07:12;;;;;;;30.97;18.37;;;;;;;;;;5019572;28;20051;-80
2020/12/17 03:09:39;;;;;;;26.27;18.20;;;;;;;;;;5022620;28;20037;-80
2020/12/17 03:12:05;;;;;;;37.40;20.33;;;;;;;;;;5018679;28;20120;-80
2020/12/17 03:14:31;;;;;;;36.13;19.67;;;;;;;;;;5036221;28;20032;-80
2020/12/17 03:16:57;;;;;;;29.10;20.20;;;;;;;;;;5018474;28;20413;-80
2020/12/17 03:19:23;;;;;;;34.73;22.53;;;;;;;;;;5019369;28;20025;-80
2020/12/17 03:21:52;;;;;;;34.20;22.33;;;;;;;;;;5023334;28;20518;-80
2020/12/17 03:24:18;;;;;;;36.23;21.70;;;;;;;;;;5044959;28;20029;-80
2020/12/17 03:26:44;;;;;;;34.20;22.50;;;;;;;;;;5020930;28;20045;-80
2020/12/17 03:29:10;;;;;;;35.57;22.77;;;;;;;;;;5018174;28;20037;-80
2020/12/17 03:31:36;;;;;;;36.10;21.67;;;;;;;;;;5019486;28;20082;-80
2020/12/17 03:34:02;;;;;;;36.70;22.40;;;;;;;;;;5020521;28;20029;-79
2020/12/17 03:36:28;;;;;;;39.47;27.77;;;;;;;;;;5022212;28;20085;-80
2020/12/17 03:38:54;;;;;;;39.47;24.77;;;;;;;;;;5040388;28;20038;-80
2020/12/17 03:41:20;;;;;;;40.37;24.13;;;;;;;;;;5039966;28;20379;-80
2020/12/17 03:43:46;;;;;;;42.23;25.90;;;;;;;;;;5038053;28;20082;-81
2020/12/17 03:46:13;;;;;;;42.93;24.67;;;;;;;;;;5019593;28;20021;-80
2020/12/17 03:48:39;;;;;;;35.77;24.10;;;;;;;;;;5021060;28;20475;-80
2020/12/17 03:51:05;;;;;;;40.57;27.37;;;;;;;;;;5022243;28;20120;-80
2020/12/17 03:53:31;;;;;;;43.67;24.53;;;;;;;;;;5044148;28;20036;-81
2020/12/17 03:55:57;;;;;;;39.10;23.50;;;;;;;;;;5030600;28;20026;-80
2020/12/17 03:58:23;;;;;;;36.10;24.33;;;;;;;;;;5029462;28;20050;-80
2020/12/17 04:00:49;;;;;;;38.40;24.37;;;;;;;;;;5030380;28;20046;-80
2020/12/17 04:03:15;;;;;;;40.37;22.80;;;;;;;;;;5022927;28;20053;-80
2020/12/17 04:05:41;;;;;;;35.17;24.83;;;;;;;;;;5023751;28;20468;-80
2020/12/17 04:08:07;;;;;;;39.23;26.60;;;;;;;;;;5024569;28;20040;-80
2020/12/17 04:10:33;;;;;;;44.17;27.23;;;;;;;;;;5025120;28;20124;-80
2020/12/17 04:12:59;;;;;;;38.03;26.47;;;;;;;;;;5030407;28;20025;-80
2020/12/17 04:15:25;;;;;;;42.40;26.13;;;;;;;;;;5030694;28;20033;-80
2020/12/17 04:17:51;;;;;;;41.57;26.70;;;;;;;;;;5027531;28;20034;-80
2020/12/17 04:20:17;;;;;;;39.83;25.13;;;;;;;;;;5048823;28;20045;-80
2020/12/17 04:22:43;;;;;;;41.23;29.13;;;;;;;;;;5024659;28;20026;-80
2020/12/17 04:25:09;;;;;;;38.43;26.20;;;;;;;;;;5029385;28;20025;-81
2020/12/17 04:27:35;;;;;;;42.20;31.13;;;;;;;;;;5038128;28;20014;-80
2020/12/17 04:30:02;;;;;;;45.17;29.27;;;;;;;;;;5036316;28;20034;-80
2020/12/17 04:32:28;;;;;;;42.50;29.40;;;;;;;;;;5034124;28;20026;-80
2020/12/17 04:34:54;;;;;;;40.60;28.63;;;;;;;;;;5052412;28;20021;-80
2020/12/17 04:37:20;;;;;;;45.73;30.73;;;;;;;;;;5032411;28;20041;-81
2020/12/17 04:39:46;;;;;;;46.57;29.23;;;;;;;;;;5022023;28;20117;-80
2020/12/17 04:42:13;;;;;;;43.37;28.00;;;;;;;;;;5023976;28;20057;-80
2020/12/17 04:44:39;;;;;;;49.43;31.70;;;;;;;;;;5042124;28;20032;-80
2020/12/17 04:47:05;;;;;;;42.80;28.40;;;;;;;;;;5025368;28;20072;-80
2020/12/17 04:49:40;;;;;;;46.17;27.77;;;;;;;;;;5049825;28;20029;-81
2020/12/17 04:52:07;;;;;;;46.55;29.92;;;;;;;;;;5033603;28;20482;-82
2020/12/17 04:54:33;;;;;;;42.50;28.33;;;;;;;;;;5032867;28;20078;-81
2020/12/17 04:57:13;;;;;;;45.20;28.80;;;;;;;;;;5038383;28;20035;-81
2020/12/17 04:59:44;;;;;;;43.57;29.33;;;;;;;;;;5030638;28;20054;-82
2020/12/17 05:02:11;;;;;;;42.70;28.40;;;;;;;;;;5051453;28;20077;-80
2020/12/17 05:04:38;;;;;;;46.27;29.83;;;;;;;;;;5053879;28;20026;-81
2020/12/17 05:07:05;;;;;;;38.63;29.60;;;;;;;;;;5035198;28;20047;-82
2020/12/17 05:09:31;;;;;;;47.07;32.27;;;;;;;;;;5036563;28;20060;-81
2020/12/17 05:11:57;;;;;;;44.93;32.50;;;;;;;;;;5047318;28;20025;-82
2020/12/17 05:14:23;;;;;;;39.33;29.93;;;;;;;;;;5031337;28;20029;-81
2020/12/17 05:16:50;;;;;;;43.80;30.70;;;;;;;;;;5033156;28;20406;-81
2020/12/17 05:19:16;;;;;;;43.47;32.13;;;;;;;;;;5053857;28;20047;-82
2020/12/17 05:21:42;;;;;;;46.00;35.27;;;;;;;;;;5052085;28;20058;-81
2020/12/17 05:24:08;;;;;;;44.77;33.90;;;;;;;;;;5036665;28;20030;-81
2020/12/17 05:26:36;;;;;;;46.40;32.70;;;;;;;;;;5041311;28;20085;-82
2020/12/17 05:29:02;;;;;;;50.53;36.97;;;;;;;;;;5057944;28;20014;-80
2020/12/17 05:31:29;;;;;;;44.67;32.23;;;;;;;;;;5040894;28;20036;-80
2020/12/17 05:33:55;;;;;;;45.37;32.90;;;;;;;;;;5037865;28;20028;-82
2020/12/17 05:36:25;;;;;;;49.80;34.20;;;;;;;;;;5040254;28;20045;-81
2020/12/17 05:38:55;;;;;;;48.80;37.43;;;;;;;;;;5057723;28;20022;-82
2020/12/17 05:41:21;;;;;;;49.03;32.83;;;;;;;;;;5040620;28;20025;-82
2020/12/17 05:43:47;;;;;;;47.00;31.47;;;;;;;;;;5057925;28;20043;-81
2020/12/17 05:48:49;;;;;;;45.27;36.77;;;;;;;;;;5333092;23;20329;-82
2020/12/17 05:51:19;;;;;;;48.57;31.73;;;;;;;;;;5040292;28;20006;-82
2020/12/17 05:53:48;;;;;;;44.67;33.37;;;;;;;;;;5038203;28;20010;-82
2020/12/17 05:56:14;;;;;;;41.23;31.87;;;;;;;;;;5033384;28;20116;-81
2020/12/17 05:58:44;;;;;;;40.37;29.37;;;;;;;;;;5031053;28;20030;-81
2020/12/17 06:01:16;;;;;;;38.47;30.33;;;;;;;;;;5048781;28;20021;-80
2020/12/17 06:03:43;;;;;;;34.97;27.57;;;;;;;;;;5033138;28;20493;-80
2020/12/17 06:06:09;;;;;;;33.53;25.63;;;;;;;;;;5052001;28;20051;-81
2020/12/17 06:08:39;;;;;;;33.07;26.80;;;;;;;;;;5039793;28;20030;-81
2020/12/17 06:11:06;;;;;;;30.37;24.63;;;;;;;;;;5038124;28;20026;-81
2020/12/17 06:13:33;;;;;;;33.53;24.30;;;;;;;;;;5034367;28;20029;-81
2020/12/17 06:16:02;;;;;;;32.20;22.77;;;;;;;;;;5029422;28;20034;-81
2020/12/17 06:18:32;;;;;;;28.27;22.07;;;;;;;;;;5030937;28;20038;-81
2020/12/17 06:20:58;;;;;;;26.80;20.87;;;;;;;;;;5028703;28;20026;-81
2020/12/17 06:23:25;;;;;;;22.20;19.43;;;;;;;;;;5048457;28;20036;-80
2020/12/17 06:25:54;;;;;;;21.20;18.53;;;;;;;;;;5037099;28;20025;-82
2020/12/17 06:28:39;;;;;;;23.47;16.03;;;;;;;;;;5056109;28;20026;-81
2020/12/17 06:31:05;;;;;;;22.83;17.45;;;;;;;;;;5034820;28;20010;-81
2020/12/17 06:33:35;;;;;;;20.17;13.70;;;;;;;;;;5056671;28;20045;-81
2020/12/17 06:36:01;;;;;;;19.20;14.30;;;;;;;;;;5032725;28;20562;-81
2020/12/17 06:38:28;;;;;;;16.80;13.83;;;;;;;;;;5049605;28;20037;-80
2020/12/17 06:40:54;;;;;;;21.60;13.90;;;;;;;;;;5031073;28;20041;-80
2020/12/17 06:43:34;;;;;;;14.40;12.23;;;;;;;;;;5037114;28;20026;-80
2020/12/17 06:46:00;;;;;;;16.53;12.13;;;;;;;;;;5037391;28;20057;-80
2020/12/17 06:48:32;;;;;;;15.47;12.20;;;;;;;;;;5034363;28;20038;-81
2020/12/17 06:50:59;;;;;;;12.83;9.87;;;;;;;;;;5036150;28;20044;-80
2020/12/17 06:53:39;;;;;;;16.90;10.47;;;;;;;;;;5032874;28;20068;-81
2020/12/17 06:56:05;;;;;;;13.73;10.93;;;;;;;;;;5034612;28;20018;-81
2020/12/17 06:58:33;;;;;;;10.47;9.47;;;;;;;;;;5034226;28;20034;-82
2020/12/17 07:00:59;;;;;;;13.00;8.83;;;;;;;;;;5013085;28;20033;-81
2020/12/17 07:03:42;;;;;;;9.37;6.97;;;;;;;;;;5025437;28;20465;-81
2020/12/17 07:06:12;;;;;;;7.30;5.50;;;;;;;;;;5027370;28;20108;-80
2020/12/17 07:08:38;;;;;;;6.20;4.33;;;;;;;;;;5033486;28;20032;-81
2020/12/17 07:11:07;;;;;;;5.43;4.50;;;;;;;;;;5032243;28;20065;-82
2020/12/17 07:13:40;;;;;;;7.63;4.13;;;;;;;;;;5035498;28;20022;-81
2020/12/17 07:16:17;;;;;;;5.07;3.23;;;;;;;;;;5034420;28;20061;-82
2020/12/17 07:18:44;;;;;;;4.90;2.77;;;;;;;;;;5036204;28;20042;-83
2020/12/17 07:21:10;;;;;;;4.23;2.13;;;;;;;;;;5035127;28;20014;-82
2020/12/17 07:23:37;;;;;;;4.30;2.40;;;;;;;;;;5034756;28;20091;-82
2020/12/17 07:26:12;;;;;;;4.83;2.93;;;;;;;;;;5030391;28;20083;-82
2020/12/17 07:28:38;;;;;;;4.90;3.70;;;;;;;;;;5028149;28;20044;-82
2020/12/17 07:31:05;;;;;;;6.17;4.30;;;;;;;;;;5028258;28;20037;-81
2020/12/17 07:33:37;;;;;;;7.23;5.27;;;;;;;;;;5033451;28;20026;-81
2020/12/17 07:36:07;;;;;;;5.37;3.97;;;;;;;;;;5030541;28;20022;-81
2020/12/17 07:38:33;;;;;;;7.93;6.03;;;;;;;;;;5026880;28;20041;-82
2020/12/17 07:40:59;;;;;;;7.83;5.70;;;;;;;;;;5027046;28;20362;-81
2020/12/17 07:43:41;;;;;;;9.77;7.90;;;;;;;;;;5028071;28;20053;-81
2020/12/17 07:46:08;;;;;;;14.77;8.83;;;;;;;;;;5030226;28;20029;-81
2020/12/17 07:48:40;;;;;;;11.70;9.70;;;;;;;;;;5034255;28;20050;-82
2020/12/17 07:51:15;;;;;;;13.47;12.13;;;;;;;;;;5033996;28;20059;-81
2020/12/17 07:53:43;;;;;;;15.63;12.63;;;;;;;;;;5035371;28;20034;-83
2020/12/17 07:56:09;;;;;;;17.77;15.53;;;;;;;;;;5031124;28;20034;-82
2020/12/17 07:58:39;;;;;;;19.03;16.37;;;;;;;;;;5031665;28;20072;-82
2020/12/17 08:01:06;;;;;;;26.47;20.43;;;;;;;;;;5028536;28;20010;-81
2020/12/17 08:03:48;;;;;;;26.03;21.10;;;;;;;;;;5030693;28;20057;-82
2020/12/17 08:06:15;;;;;;;29.27;21.60;;;;;;;;;;5032715;28;20014;-81
2020/12/17 08:08:42;;;;;;;31.77;25.70;;;;;;;;;;5031838;28;20049;-82
2020/12/17 08:11:08;;;;;;;33.30;26.13;;;;;;;;;;5031717;28;20065;-81
2020/12/17 08:13:34;;;;;;;37.77;29.07;;;;;;;;;;5032189;28;20090;-82
2020/12/17 08:16:04;;;;;;;37.47;30.73;;;;;;;;;;5036049;28;20017;-82
2020/12/17 08:18:31;;;;;;;43.20;35.07;;;;;;;;;;5032545;28;20098;-82
2020/12/17 08:23:37;;;;;;;45.70;36.13;;;;;;;;;;5308351;22;20045;-82
2020/12/17 08:26:05;;;;;;;44.30;31.80;;;;;;;;;;5034834;28;20428;-82
2020/12/17 08:28:35;;;;;;;44.37;33.87;;;;;;;;;;5034412;28;20016;-82
2020/12/17 08:31:03;;;;;;;51.77;35.50;;;;;;;;;;5035024;28;20026;-80
2020/12/17 08:33:30;;;;;;;50.90;36.63;;;;;;;;;;5036972;28;20010;-81
2020/12/17 08:36:09;;;;;;;52.57;35.73;;;;;;;;;;5052791;28;20093;-82
2020/12/17 08:38:35;;;;;;;53.60;38.60;;;;;;;;;;5170273;22;20110;-82
2020/12/17 08:41:03;;;;;;;47.93;37.63;;;;;;;;;;5189948;22;20063;-81
2020/12/17 08:43:32;;;;;;;46.63;32.17;;;;;;;;;;5038110;28;20026;-81
2020/12/17 08:45:59;;;;;;;41.43;32.07;;;;;;;;;;5058015;28;20025;-82
2020/12/17 08:51:00;;;;;;;47.97;34.45;;;;;;;;;;5137933;28;20071;-82
2020/12/17 08:56:06;;;;;;;42.70;37.37;;;;;;;;;;5401732;22;19951;-85
2020/12/17 08:58:42;;;;;;;48.53;31.83;;;;;;;;;;5127700;28;20041;-81
2020/12/17 09:01:13;;;;;;;49.10;36.70;;;;;;;;;;5127729;28;20010;-81
2020/12/17 09:03:43;;;;;;;56.57;39.27;;;;;;;;;;5127746;28;20009;-82
2020/12/17 09:06:09;;;;;;;42.70;34.30;;;;;;;;;;5124984;28;20093;-81
2020/12/17 09:08:35;;;;;;;50.87;35.80;;;;;;;;;;5125433;28;20025;-82
2020/12/17 09:11:02;;;;;;;43.63;32.17;;;;;;;;;;5126859;28;20010;-84
2020/12/17 09:13:28;;;;;;;36.33;30.03;;;;;;;;;;5110516;28;20017;-84
2020/12/17 09:16:02;;;;;;;46.60;32.10;;;;;;;;;;5123819;28;20014;-82
2020/12/17 09:18:29;;;;;;;37.93;26.50;;;;;;;;;;5126594;28;20041;-82
2020/12/17 09:21:08;;;;;;;28.93;19.87;;;;;;;;;;5126167;28;20164;-83
2020/12/17 09:23:38;;;;;;;27.47;17.73;;;;;;;;;;5123247;28;20061;-83
2020/12/17 09:26:24;;;;;;;29.37;17.03;;;;;;;;;;5125071;28;20014;-83
2020/12/17 09:31:30;;;;;;;27.83;15.57;;;;;;;;;;5140405;28;20047;-81
2020/12/17 09:34:07;;;;;;;24.23;12.27;;;;;;;;;;5124386;28;20090;-83
2020/12/17 09:36:33;;;;;;;24.43;10.93;;;;;;;;;;5138750;28;20173;-82
2020/12/17 09:39:06;;;;;;;25.73;11.33;;;;;;;;;;5140575;28;20016;-84
2020/12/17 09:41:32;;;;;;;28.73;10.93;;;;;;;;;;5140925;28;20020;-83
2020/12/17 09:43:58;;;;;;;28.47;12.17;;;;;;;;;;5121347;28;20034;-82
2020/12/17 09:46:24;;;;;;;21.17;9.63;;;;;;;;;;5137090;28;20043;-81
2020/12/17 09:48:50;;;;;;;24.87;10.47;;;;;;;;;;5120991;28;20039;-82
2020/12/17 09:51:20;;;;;;;24.53;9.60;;;;;;;;;;5142028;28;20012;-82
2020/12/17 09:56:18;;;;;;;17.93;6.53;;;;;;;;;;5260825;22;20077;-81
2020/12/17 09:58:45;;;;;;;24.43;7.10;;;;;;;;;;5434362;22;20057;-82
2020/12/17 10:01:11;;;;;;;31.17;8.53;;;;;;;;;;5030512;28;20032;-81
2020/12/17 10:03:38;;;;;;;13.37;6.13;;;;;;;;;;5031761;28;20040;-80
2020/12/17 10:06:05;;;;;;;20.20;7.00;;;;;;;;;;5122228;22;20226;-81
2020/12/17 10:08:31;;;;;;;22.20;6.97;;;;;;;;;;5291737;22;20053;-81
2020/12/17 10:10:57;;;;;;;14.00;6.20;;;;;;;;;;5121089;28;20029;-81
2020/12/17 10:13:23;;;;;;;24.07;6.50;;;;;;;;;;5119218;28;20097;-81
2020/12/17 10:15:49;;;;;;;19.00;5.57;;;;;;;;;;5052292;28;20029;-82
2020/12/17 10:18:15;;;;;;;22.80;5.57;;;;;;;;;;5357961;22;20054;-83
2020/12/17 10:20:42;;;;;;;22.53;6.87;;;;;;;;;;5052710;28;20494;-81
2020/12/17 10:23:08;;;;;;;19.70;6.37;;;;;;;;;;5053660;28;20037;-83
2020/12/17 10:25:34;;;;;;;24.10;6.20;;;;;;;;;;5035775;28;20043;-84
2020/12/17 10:28:01;;;;;;;21.53;5.60;;;;;;;;;;5297840;22;20094;-84
2020/12/17 10:30:27;;;;;;;22.97;6.83;;;;;;;;;;5131779;22;20042;-81
2020/12/17 10:32:53;;;;;;;22.30;5.87;;;;;;;;;;5035172;28;20036;-86
2020/12/17 10:35:19;;;;;;;22.33;6.13;;;;;;;;;;5030391;28;20018;-81
2020/12/17 10:40:21;;;;;;;17.80;5.23;;;;;;;;;;5642211;22;20100;-85
2020/12/17 10:42:47;;;;;;;18.27;3.97;;;;;;;;;;5144029;27;20534;-83
2020/12/17 10:45:13;;;;;;;25.73;6.13;;;;;;;;;;5076960;28;20053;-86
2020/12/17 10:47:40;;;;;;;14.77;3.67;;;;;;;;;;5244427;22;20013;-83
2020/12/17 10:55:17;;;;;;;26.97;4.80;;;;;;;;;;5312051;22;20069;-83
2020/12/17 10:57:43;;;;;;;21.53;4.40;;;;;;;;;;5056344;28;20033;-82
2020/12/17 11:00:10;;;;;;;21.63;4.93;;;;;;;;;;5056331;28;20036;-83
2020/12/17 11:02:36;;;;;;;22.43;4.83;;;;;;;;;;5319015;22;20062;-83
2020/12/17 11:05:02;;;;;;;24.20;6.20;;;;;;;;;;5031217;28;20133;-81
2020/12/17 11:07:31;;;;;;;25.70;5.40;;;;;;;;;;5034059;28;20025;-83
2020/12/17 11:09:57;;;;;;;18.50;5.67;;;;;;;;;;5036016;28;20017;-82
2020/12/17 11:12:23;;;;;;;20.70;5.97;;;;;;;;;;5183367;22;20059;-84
2020/12/17 11:22:30;;;;;;;27.23;6.97;;;;;;;;;;5184563;22;19976;-82
2020/12/17 11:24:57;;;;;;;26.57;7.83;;;;;;;;;;5033990;28;20096;-82
2020/12/17 11:27:23;;;;;;;20.47;7.23;;;;;;;;;;5033176;28;20043;-83
2020/12/17 11:29:49;;;;;;;25.37;8.57;;;;;;;;;;5203760;22;20059;-81
2020/12/17 11:32:19;;;;;;;28.03;11.53;;;;;;;;;;5010496;28;20018;-81
2020/12/17 11:34:45;;;;;;;28.20;11.67;;;;;;;;;;5014108;28;20022;-84
2020/12/17 11:37:13;;;;;;;27.03;10.67;;;;;;;;;;5012583;28;20032;-81
2020/12/17 11:39:39;;;;;;;34.10;13.53;;;;;;;;;;5012047;28;20018;-81
2020/12/17 11:42:05;;;;;;;34.20;9.87;;;;;;;;;;5126901;23;20039;-81
2020/12/17 11:44:31;;;;;;;16.97;7.50;;;;;;;;;;5014456;28;20041;-82
2020/12/17 11:46:57;;;;;;;22.47;7.37;;;;;;;;;;5189362;23;20042;-81
2020/12/17 11:49:23;;;;;;;26.23;7.07;;;;;;;;;;5007547;28;20033;-81
2020/12/17 11:51:53;;;;;;;21.33;7.63;;;;;;;;;;5007977;28;20041;-80
2020/12/17 11:54:20;;;;;;;22.90;7.57;;;;;;;;;;5008379;28;20519;-81
2020/12/17 11:56:46;;;;;;;18.93;5.93;;;;;;;;;;5066184;22;20045;-83
2020/12/17 11:59:12;;;;;;;20.77;6.10;;;;;;;;;;5135987;27;20478;-81
2020/12/17 12:01:41;;;;;;;24.80;6.70;;;;;;;;;;5139032;27;20029;-80
2020/12/17 12:04:07;;;;;;;25.37;6.80;;;;;;;;;;5139705;28;20010;-82
2020/12/17 12:06:34;;;;;;;17.07;5.77;;;;;;;;;;5138606;28;20024;-81
2020/12/17 12:09:00;;;;;;;27.60;6.87;;;;;;;;;;5139522;27;20104;-80
2020/12/17 12:11:29;;;;;;;23.27;5.40;;;;;;;;;;5116274;28;20050;-83
2020/12/17 12:13:55;;;;;;;22.23;6.10;;;;;;;;;;5233387;22;20057;-81
2020/12/17 12:16:22;;;;;;;22.30;6.20;;;;;;;;;;5095363;28;20502;-81
2020/12/17 12:18:48;;;;;;;16.23;5.00;;;;;;;;;;5096391;28;20101;-79
2020/12/17 12:21:15;;;;;;;16.57;4.93;;;;;;;;;;5028643;28;20030;-82
2020/12/17 12:23:47;;;;;;;19.37;4.67;;;;;;;;;;5096993;28;20475;-80
2020/12/17 12:26:13;;;;;;;16.63;4.13;;;;;;;;;;5097460;28;20060;-82
2020/12/17 12:28:40;;;;;;;20.63;4.50;;;;;;;;;;5099729;28;20010;-82
2020/12/17 12:31:06;;;;;;;17.97;4.40;;;;;;;;;;5100195;28;20036;-83
2020/12/17 12:33:32;;;;;;;18.70;4.80;;;;;;;;;;5093706;28;20367;-80
2020/12/17 12:36:01;;;;;;;17.93;4.20;;;;;;;;;;5029567;28;20026;-81
2020/12/17 12:38:27;;;;;;;20.10;4.43;;;;;;;;;;5097995;28;20030;-81
2020/12/17 12:40:53;;;;;;;18.93;4.60;;;;;;;;;;5030317;28;20029;-81
2020/12/17 12:43:19;;;;;;;20.10;3.60;;;;;;;;;;5103231;28;20033;-81
2020/12/17 12:45:45;;;;;;;19.57;4.27;;;;;;;;;;5136207;23;20025;-80
2020/12/17 12:50:48;;;;;;;19.30;3.17;;;;;;;;;;5193943;23;20054;-82
2020/12/17 12:53:14;;;;;;;19.67;4.00;;;;;;;;;;5137666;22;20073;-81
2020/12/17 12:55:40;;;;;;;19.80;4.73;;;;;;;;;;5462873;22;20050;-83
2020/12/17 12:58:06;;;;;;;17.97;4.70;;;;;;;;;;5014674;28;20041;-80
2020/12/17 13:00:33;;;;;;;18.67;3.60;;;;;;;;;;5016069;28;20101;-81
2020/12/17 13:02:59;;;;;;;25.00;3.37;;;;;;;;;;5035839;28;20014;-81
2020/12/17 13:05:25;;;;;;;18.83;3.17;;;;;;;;;;5020053;28;20102;-80
2020/12/17 13:07:51;;;;;;;19.60;4.17;;;;;;;;;;5020294;28;20042;-81
2020/12/17 13:10:17;;;;;;;16.77;3.80;;;;;;;;;;5018410;28;20018;-81
2020/12/17 13:15:19;;;;;;;12.43;2.70;;;;;;;;;;5081380;23;20070;-83
2020/12/17 13:17:45;;;;;;;15.60;2.60;;;;;;;;;;5032284;28;20042;-81
2020/12/17 13:20:11;;;;;;;13.15;3.17;;;;;;;;;;5016028;28;20038;-81
2020/12/17 13:25:08;;;;;;;15.32;3.00;;;;;;;;;;5119404;28;20035;-82
2020/12/17 13:27:34;;;;;;;17.55;3.72;;;;;;;;;;5366769;22;20043;-84
2020/12/17 13:30:00;;;;;;;16.80;3.27;;;;;;;;;;5217687;22;20061;-79
2020/12/17 13:32:28;;;;;;;16.77;3.07;;;;;;;;;;5014122;28;20065;-81
2020/12/17 13:34:54;;;;;;;14.67;2.57;;;;;;;;;;5030047;28;20014;-81
2020/12/17 13:39:56;;;;;;;11.87;3.20;;;;;;;;;;5265194;22;20053;-82
2020/12/17 13:42:23;;;;;;;14.43;2.43;;;;;;;;;;5013686;28;20030;-83
2020/12/17 13:44:49;;;;;;;16.13;2.30;;;;;;;;;;5012987;28;20041;-81
2020/12/17 13:47:15;;;;;;;20.80;3.23;;;;;;;;;;5033006;28;20030;-81
2020/12/17 13:49:41;;;;;;;13.80;2.30;;;;;;;;;;5010903;28;20039;-78
2020/12/17 13:52:07;;;;;;;13.43;2.67;;;;;;;;;;5024551;28;20026;-81
2020/12/17 13:54:34;;;;;;;16.43;2.90;;;;;;;;;;5015200;28;20010;-83
2020/12/17 13:57:04;;;;;;;14.50;3.43;;;;;;;;;;5013152;28;20026;-81
2020/12/17 13:59:30;;;;;;;17.70;2.57;;;;;;;;;;5060931;22;20058;-81
2020/12/17 14:01:59;;;;;;;16.20;2.63;;;;;;;;;;5011116;28;20010;-81
2020/12/17 14:04:26;;;;;;;10.00;2.80;;;;;;;;;;5014084;28;20023;-81
2020/12/17 14:06:52;;;;;;;15.07;2.77;;;;;;;;;;5007925;28;20034;-80
2020/12/17 14:09:18;;;;;;;11.50;2.67;;;;;;;;;;5003057;28;20090;-80
2020/12/17 14:11:44;;;;;;;10.27;3.17;;;;;;;;;;5008754;28;20074;-80
2020/12/17 14:14:10;;;;;;;12.50;2.58;;;;;;;;;;5012574;28;20049;-81
2020/12/17 14:16:42;;;;;;;11.85;2.50;;;;;;;;;;5007986;28;20086;-80
2020/12/17 14:19:08;;;;;;;17.50;2.78;;;;;;;;;;5004404;28;20030;-81
2020/12/17 14:21:34;;;;;;;15.10;3.30;;;;;;;;;;5006195;28;20050;-82
2020/12/17 14:24:00;;;;;;;13.33;2.67;;;;;;;;;;5009337;28;20031;-81
2020/12/17 14:26:27;;;;;;;11.70;2.87;;;;;;;;;;5011594;28;20050;-81
2020/12/17 14:28:53;;;;;;;14.47;3.90;;;;;;;;;;5184224;23;20064;-81
2020/12/17 14:31:25;;;;;;;14.17;2.87;;;;;;;;;;5036012;28;20026;-81
2020/12/17 14:33:51;;;;;;;16.30;3.27;;;;;;;;;;5035974;28;20048;-85
2020/12/17 14:36:17;;;;;;;13.57;3.00;;;;;;;;;;5383603;22;20060;-81
2020/12/17 14:38:43;;;;;;;11.50;3.33;;;;;;;;;;5105364;28;20051;-83
2020/12/17 14:41:09;;;;;;;18.97;3.70;;;;;;;;;;5102528;28;20030;-82
2020/12/17 14:43:35;;;;;;;13.50;3.20;;;;;;;;;;5105717;28;20020;-82
2020/12/17 14:46:03;;;;;;;12.98;3.10;;;;;;;;;;5102947;28;20022;-81
2020/12/17 14:48:32;;;;;;;17.37;4.40;;;;;;;;;;5099067;28;20033;-81
2020/12/17 14:50:58;;;;;;;18.57;3.20;;;;;;;;;;5098527;28;20045;-80
2020/12/17 14:53:24;;;;;;;19.65;2.65;;;;;;;;;;5099004;28;20061;-80
2020/12/17 14:55:52;;;;;;;12.87;3.07;;;;;;;;;;5099503;28;20029;-81
2020/12/17 14:58:19;;;;;;;17.10;3.13;;;;;;;;;;5097394;28;20046;-80
2020/12/17 15:00:48;;;;;;;12.87;2.40;;;;;;;;;;5095289;28;20034;-81
2020/12/17 15:03:14;;;;;;;13.82;3.30;;;;;;;;;;5096253;28;20014;-82
2020/12/17 15:05:44;;;;;;;18.03;3.13;;;;;;;;;;5093833;28;20032;-81